createdAt,value
2018-12-13T00:01:12.294Z,102528.83
2018-12-13T00:03:40.250Z,102528.47
2018-12-13T00:06:09.575Z,102521.81
2018-12-13T00:08:37.579Z,102515.69
2018-12-13T00:11:07.205Z,102522.58
2018-12-13T00:13:37.327Z,102515.84
2018-12-13T00:16:05.844Z,102525.77
2018-12-13T00:18:34.005Z,102514.98
2018-12-13T00:21:02.803Z,102516.70
2018-12-13T00:23:31.355Z,102513.14
2018-12-13T00:26:03.454Z,102512.28
2018-12-13T00:28:32.338Z,102514.58
2018-12-13T00:30:59.971Z,102512.50
2018-12-13T00:33:29.452Z,102503.28
2018-12-13T00:35:59.073Z,102503.70
2018-12-13T00:38:27.758Z,102509.70
2018-12-13T00:40:56.495Z,102514.83
2018-12-13T00:43:26.516Z,102502.41
2018-12-13T00:45:57.682Z,102510.63
2018-12-13T00:48:26.866Z,102505.17
2018-12-13T00:50:54.860Z,102506.85
2018-12-13T00:53:24.599Z,102505.63
2018-12-13T00:55:53.209Z,102506.97
2018-12-13T00:58:22.546Z,102510.41
2018-12-13T01:00:53.461Z,102517.91
2018-12-13T01:03:21.458Z,102512.89
2018-12-13T01:05:49.467Z,102515.58
2018-12-13T01:08:20.482Z,102514.72
2018-12-13T01:10:48.600Z,102522.81
2018-12-13T01:13:16.212Z,102517.05
2018-12-13T01:15:44.512Z,102518.20
2018-12-13T01:18:13.091Z,102514.13
2018-12-13T01:20:44.536Z,102508.30
2018-12-13T01:23:13.660Z,102508.84
2018-12-13T01:25:42.601Z,102505.81
2018-12-13T01:28:11.004Z,102497.98
2018-12-13T01:30:44.087Z,102500.19
2018-12-13T01:33:14.847Z,102502.44
2018-12-13T01:35:43.258Z,102502.52
2018-12-13T01:38:11.307Z,102498.88
2018-12-13T01:40:39.859Z,102494.72
2018-12-13T01:43:07.530Z,102495.70
2018-12-13T01:45:36.319Z,102493.87
2018-12-13T01:48:06.355Z,102494.44
2018-12-13T01:50:35.863Z,102491.37
2018-12-13T01:53:04.763Z,102488.52
2018-12-13T01:55:33.259Z,102486.72
2018-12-13T01:58:03.210Z,102485.36
2018-12-13T02:00:33.914Z,102492.86
2018-12-13T02:03:01.504Z,102492.89
2018-12-13T02:05:32.186Z,102495.11
2018-12-13T02:08:00.293Z,102490.53
2018-12-13T02:19:30.920Z,102502.62
2018-12-13T02:21:59.567Z,102497.73
2018-12-13T02:24:27.522Z,102495.44
2018-12-13T02:26:56.332Z,102494.40
2018-12-13T02:29:26.702Z,102496.80
2018-12-13T02:31:54.330Z,102496.23
2018-12-13T02:34:23.272Z,102490.75
2018-12-13T02:36:51.169Z,102488.62
2018-12-13T02:39:21.552Z,102491.11
2018-12-13T02:41:49.298Z,102490.63
2018-12-13T02:44:20.565Z,102491.89
2018-12-13T02:46:48.183Z,102490.80
2018-12-13T02:49:17.911Z,102489.75
2018-12-13T02:51:47.039Z,102494.94
2018-12-13T02:54:19.557Z,102490.05
2018-12-13T02:56:47.212Z,102484.98
2018-12-13T02:59:17.370Z,102485.36
2018-12-13T03:01:45.103Z,102485.75
2018-12-13T03:04:16.383Z,102486.62
2018-12-13T03:06:44.329Z,102475.02
2018-12-13T03:09:13.459Z,102478.20
2018-12-13T03:11:41.451Z,102477.72
2018-12-13T03:14:10.448Z,102479.95
2018-12-13T03:16:38.141Z,102479.73
2018-12-13T03:19:07.443Z,102479.47
2018-12-13T03:21:35.829Z,102477.94
2018-12-13T03:24:09.541Z,102470.81
2018-12-13T03:26:37.956Z,102469.28
2018-12-13T03:29:07.583Z,102469.88
2018-12-13T03:31:35.196Z,102465.25
2018-12-13T03:34:03.873Z,102466.11
2018-12-13T03:36:31.579Z,102471.70
2018-12-13T03:38:59.744Z,102472.55
2018-12-13T03:41:27.611Z,102470.25
2018-12-13T03:43:57.340Z,102469.88
2018-12-13T03:46:27.547Z,102469.50
2018-12-13T03:48:55.690Z,102470.05
2018-12-13T03:51:23.683Z,102473.30
2018-12-13T03:53:51.595Z,102469.75
2018-12-13T03:56:20.376Z,102465.91
2018-12-13T03:58:48.370Z,102461.20
2018-12-13T04:01:17.263Z,102457.77
2018-12-13T04:03:46.117Z,102458.73
2018-12-13T04:06:15.895Z,102464.48
2018-12-13T04:08:45.244Z,102454.12
2018-12-13T04:11:13.658Z,102456.52
2018-12-13T04:13:44.429Z,102454.80
2018-12-13T04:16:18.367Z,102451.93
2018-12-13T04:18:47.083Z,102448.20
2018-12-13T04:21:16.024Z,102457.12
2018-12-13T04:23:46.247Z,102457.80
2018-12-13T04:26:16.116Z,102462.01
2018-12-13T04:28:46.435Z,102463.42
2018-12-13T04:31:14.108Z,102455.17
2018-12-13T04:33:41.944Z,102459.88
2018-12-13T04:36:10.742Z,102456.63
2018-12-13T04:38:40.540Z,102447.59
2018-12-13T04:41:10.114Z,102450.09
2018-12-13T04:43:38.564Z,102443.92
2018-12-13T04:46:06.891Z,102444.59
2018-12-13T04:48:37.446Z,102449.89
2018-12-13T04:51:05.394Z,102446.30
2018-12-13T04:53:33.398Z,102443.17
2018-12-13T04:56:02.485Z,102444.02
2018-12-13T04:58:30.476Z,102439.31
2018-12-13T05:00:58.272Z,102437.00
2018-12-13T05:03:26.832Z,102435.17
2018-12-13T05:05:56.968Z,102426.63
2018-12-13T05:08:24.994Z,102424.34
2018-12-13T05:10:53.328Z,102424.79
2018-12-13T05:13:22.626Z,102417.21
2018-12-13T05:15:52.642Z,102420.88
2018-12-13T05:18:21.513Z,102420.98
2018-12-13T05:20:53.850Z,102412.63
2018-12-13T05:23:21.825Z,102413.00
2018-12-13T05:25:53.494Z,102405.73
2018-12-13T05:28:21.498Z,102399.02
2018-12-13T05:30:51.314Z,102403.61
2018-12-13T05:33:20.384Z,102398.61
2018-12-13T05:35:49.368Z,102398.61
2018-12-13T05:38:19.084Z,102401.30
2018-12-13T05:40:46.731Z,102390.17
2018-12-13T05:43:19.138Z,102391.63
2018-12-13T05:45:47.257Z,102390.97
2018-12-13T05:48:14.936Z,102394.82
2018-12-13T05:50:42.905Z,102394.91
2018-12-13T05:53:10.911Z,102395.41
2018-12-13T05:55:39.207Z,102390.64
2018-12-13T05:58:07.074Z,102396.95
2018-12-13T06:00:36.404Z,102395.73
2018-12-13T06:03:05.170Z,102397.07
2018-12-13T06:05:33.988Z,102397.44
2018-12-13T06:08:03.226Z,102395.64
2018-12-13T06:10:34.662Z,102394.67
2018-12-13T06:13:02.575Z,102394.48
2018-12-13T06:15:31.894Z,102397.72
2018-12-13T06:18:06.629Z,102400.69
2018-12-13T06:20:30.566Z,102394.64
2018-12-13T06:23:04.067Z,102397.33
2018-12-13T06:25:33.033Z,102400.31
2018-12-13T06:28:02.383Z,102397.70
2018-12-13T06:30:33.868Z,102399.27
2018-12-13T06:35:37.002Z,102402.68
2018-12-13T06:38:04.643Z,102408.16
2018-12-13T06:40:33.786Z,102410.35
2018-12-13T06:43:02.696Z,102402.02
2018-12-13T06:45:32.643Z,102402.70
2018-12-13T06:48:02.779Z,102405.30
2018-12-13T06:50:30.402Z,102404.72
2018-12-13T06:53:04.109Z,102405.09
2018-12-13T06:55:35.386Z,102407.59
2018-12-13T06:58:05.256Z,102404.55
2018-12-13T07:00:35.926Z,102414.14
2018-12-13T07:03:03.938Z,102402.92
2018-12-13T07:05:35.686Z,102401.95
2018-12-13T07:08:07.849Z,102400.72
2018-12-13T07:10:36.345Z,102390.23
2018-12-13T07:13:08.084Z,102393.70
2018-12-13T07:15:37.043Z,102397.44
2018-12-13T07:18:06.664Z,102405.61
2018-12-13T07:20:34.569Z,102403.97
2018-12-13T07:23:03.732Z,102392.25
2018-12-13T07:25:36.070Z,102389.79
2018-12-13T07:28:08.387Z,102395.05
2018-12-13T07:30:36.277Z,102392.18
2018-12-13T07:33:06.332Z,102389.20
2018-12-13T07:35:35.167Z,102391.62
2018-12-13T07:38:04.354Z,102394.30
2018-12-13T07:40:31.990Z,102391.22
2018-12-13T07:43:01.096Z,102386.52
2018-12-13T07:45:33.979Z,102382.41
2018-12-13T07:48:04.441Z,102386.33
2018-12-13T07:50:33.578Z,102380.47
2018-12-13T07:53:02.706Z,102379.23
2018-12-13T07:55:31.844Z,102378.57
2018-12-13T07:57:59.756Z,102378.20
2018-12-13T08:00:27.759Z,102379.13
2018-12-13T08:02:59.237Z,102373.01
2018-12-13T08:05:28.035Z,102370.77
2018-12-13T08:07:56.476Z,102377.21
2018-12-13T08:10:25.358Z,102380.38
2018-12-13T08:12:56.183Z,102379.09
2018-12-13T08:15:26.236Z,102374.08
2018-12-13T08:17:54.320Z,102368.32
2018-12-13T08:20:23.459Z,102370.50
2018-12-13T08:22:51.759Z,102364.25
2018-12-13T08:25:22.072Z,102359.22
2018-12-13T08:27:49.676Z,102355.36
2018-12-13T08:30:19.467Z,102359.68
2018-12-13T08:32:47.475Z,102362.66
2018-12-13T08:35:16.372Z,102358.02
2018-12-13T08:37:44.773Z,102351.91
2018-12-13T08:40:13.269Z,102359.22
2018-12-13T08:42:42.013Z,102362.62
2018-12-13T08:45:09.982Z,102359.58
2018-12-13T08:47:40.814Z,102365.34
2018-12-13T08:50:11.307Z,102366.22
2018-12-13T08:52:39.717Z,102372.75
2018-12-13T08:55:10.901Z,102375.75
2018-12-13T08:57:40.708Z,102368.48
2018-12-13T09:00:10.844Z,102369.64
2018-12-13T09:02:38.818Z,102367.81
2018-12-13T09:05:07.715Z,102365.11
2018-12-13T09:07:36.934Z,102367.38
2018-12-13T09:10:07.832Z,102367.38
2018-12-13T09:12:36.598Z,102362.78
2018-12-13T09:15:05.779Z,102361.81
2018-12-13T09:17:34.192Z,102362.85
2018-12-13T09:20:02.697Z,102358.06
2018-12-13T09:22:32.539Z,102365.13
2018-12-13T09:25:01.856Z,102367.97
2018-12-13T09:27:31.012Z,102361.88
2018-12-13T09:30:00.262Z,102358.20
2018-12-13T09:32:30.931Z,102362.00
2018-12-13T09:35:02.868Z,102362.45
2018-12-13T09:37:30.528Z,102357.52
2018-12-13T09:40:00.198Z,102364.20
2018-12-13T09:42:27.810Z,102358.30
2018-12-13T09:44:55.393Z,102362.02
2018-12-13T09:47:23.003Z,102360.83
2018-12-13T09:49:50.589Z,102353.53
2018-12-13T09:52:18.195Z,102354.67
2018-12-13T09:54:45.778Z,102351.73
2018-12-13T09:57:13.383Z,102356.05
2018-12-13T09:59:40.967Z,102351.81
2018-12-13T10:02:08.588Z,102352.18
2018-12-13T10:04:36.175Z,102352.45
2018-12-13T10:07:03.778Z,102344.75
2018-12-13T10:09:31.368Z,102341.48
2018-12-13T10:11:59.065Z,102341.73
2018-12-13T10:14:26.648Z,102334.91
2018-12-13T10:16:54.231Z,102333.36
2018-12-13T10:19:21.844Z,102334.48
2018-12-13T10:21:49.432Z,102331.19
2018-12-13T10:24:17.037Z,102326.45
2018-12-13T10:26:44.624Z,102327.58
2018-12-13T10:29:12.236Z,102326.11
2018-12-13T10:31:39.823Z,102322.47
2018-12-13T10:34:07.431Z,102322.63
2018-12-13T10:36:35.019Z,102321.06
2018-12-13T10:39:02.711Z,102321.22
2018-12-13T10:41:30.305Z,102323.69
2018-12-13T10:43:57.910Z,102324.42
2018-12-13T10:46:25.504Z,102329.96
2018-12-13T10:48:53.112Z,102323.88
2018-12-13T10:51:20.703Z,102329.53
2018-12-13T10:53:48.392Z,102331.52
2018-12-13T10:56:15.989Z,102330.05
2018-12-13T10:58:43.591Z,102317.20
2018-12-13T11:01:16.808Z,102317.20
2018-12-13T11:03:44.426Z,102325.64
2018-12-13T11:06:12.027Z,102314.86
2018-12-13T11:08:39.643Z,102311.19
2018-12-13T11:11:07.235Z,102310.23
2018-12-13T11:13:34.843Z,102311.34
2018-12-13T11:16:02.442Z,102306.09
2018-12-13T11:18:30.059Z,102307.22
2018-12-13T11:20:57.652Z,102311.05
2018-12-13T11:23:25.263Z,102312.30
2018-12-13T11:25:52.851Z,102307.27
2018-12-13T11:28:32.327Z,102309.34
2018-12-13T11:30:59.952Z,102311.23
2018-12-13T11:33:27.654Z,102306.97
2018-12-13T11:35:55.246Z,102307.70
2018-12-13T11:38:22.851Z,102302.58
2018-12-13T11:40:50.431Z,102291.80
2018-12-13T11:43:18.051Z,102295.72
2018-12-13T11:45:45.639Z,102287.75
2018-12-13T11:48:13.248Z,102291.80
2018-12-13T11:50:40.919Z,102282.95
2018-12-13T11:53:08.539Z,102286.05
2018-12-13T11:55:36.199Z,102285.79
2018-12-13T11:58:03.833Z,102283.27
2018-12-13T12:00:31.427Z,102282.64
2018-12-13T12:02:59.020Z,102280.31
2018-12-13T12:05:26.684Z,102283.77
2018-12-13T12:07:54.352Z,102282.05
2018-12-13T12:10:21.967Z,102288.17
2018-12-13T12:12:49.563Z,102285.75
2018-12-13T12:15:17.173Z,102280.72
2018-12-13T12:17:44.755Z,102277.66
2018-12-13T12:20:12.368Z,102285.26
2018-12-13T12:22:39.956Z,102280.36
2018-12-13T12:25:07.643Z,102276.67
2018-12-13T12:27:35.228Z,102281.35
2018-12-13T12:30:02.847Z,102285.39
2018-12-13T12:32:30.440Z,102285.89
2018-12-13T12:34:58.047Z,102291.77
2018-12-13T12:37:25.637Z,102297.16
2018-12-13T12:39:53.247Z,102300.45
2018-12-13T12:42:20.834Z,102295.95
2018-12-13T12:44:48.452Z,102295.19
2018-12-13T12:47:16.041Z,102295.31
2018-12-13T12:49:43.641Z,102294.42
2018-12-13T12:52:11.229Z,102289.43
2018-12-13T12:54:38.816Z,102286.23
2018-12-13T12:57:06.434Z,102283.05
2018-12-13T12:59:34.032Z,102283.81
2018-12-13T13:02:01.640Z,102278.29
2018-12-13T13:04:29.286Z,102279.77
2018-12-13T13:06:56.900Z,102275.14
2018-12-13T13:09:25.177Z,102270.60
2018-12-13T13:11:53.141Z,102277.70
2018-12-13T13:14:20.732Z,102268.14
2018-12-13T13:16:48.394Z,102276.23
2018-12-13T13:19:16.046Z,102270.84
2018-12-13T13:21:43.736Z,102274.42
2018-12-13T13:24:11.333Z,102269.03
2018-12-13T13:26:38.945Z,102268.53
2018-12-13T13:29:06.532Z,102262.65
2018-12-13T13:31:34.137Z,102263.86
2018-12-13T13:34:01.735Z,102267.42
2018-12-13T13:36:29.347Z,102256.53
2018-12-13T13:38:56.931Z,102257.88
2018-12-13T13:41:25.387Z,102262.91
2018-12-13T13:43:52.974Z,102254.83
2018-12-13T13:46:20.582Z,102264.72
2018-12-13T13:48:48.163Z,102267.05
2018-12-13T13:51:21.548Z,102260.44
2018-12-13T13:53:55.443Z,102262.75
2018-12-13T13:56:23.068Z,102265.57
2018-12-13T13:58:50.658Z,102266.56
2018-12-13T14:01:18.250Z,102261.66
2018-12-13T14:03:45.866Z,102264.81
2018-12-13T14:06:13.458Z,102265.93
2018-12-13T14:08:41.071Z,102264.94
2018-12-13T14:11:08.660Z,102263.59
2018-12-13T14:13:36.284Z,102254.78
2018-12-13T14:16:03.876Z,102252.67
2018-12-13T14:18:31.488Z,102248.27
2018-12-13T14:20:59.166Z,102247.15
2018-12-13T14:23:26.776Z,102246.52
2018-12-13T14:25:54.364Z,102245.27
2018-12-13T14:28:21.974Z,102244.41
2018-12-13T14:30:49.563Z,102242.34
2018-12-13T14:33:17.180Z,102242.92
2018-12-13T14:35:44.775Z,102244.01
2018-12-13T14:38:12.385Z,102247.69
2018-12-13T14:40:39.967Z,102251.86
2018-12-13T14:43:07.575Z,102244.36
2018-12-13T14:45:35.172Z,102244.86
2018-12-13T14:48:02.785Z,102236.90
2018-12-13T14:50:30.374Z,102235.41
2018-12-13T14:52:57.991Z,102235.77
2018-12-13T14:55:25.584Z,102236.27
2018-12-13T14:57:53.170Z,102239.91
2018-12-13T15:00:20.782Z,102242.02
2018-12-13T15:02:48.371Z,102238.47
2018-12-13T15:05:16.563Z,102242.88
2018-12-13T15:07:44.144Z,102237.62
2018-12-13T15:10:11.761Z,102243.10
2018-12-13T15:12:39.352Z,102242.47
2018-12-13T15:15:07.042Z,102246.28
2018-12-13T15:17:34.628Z,102246.73
2018-12-13T15:20:02.237Z,102253.60
2018-12-13T15:22:29.827Z,102252.48
2018-12-13T15:24:57.441Z,102252.70
2018-12-13T15:27:25.031Z,102256.38
2018-12-13T15:29:52.640Z,102263.60
2018-12-13T15:32:20.219Z,102259.78
2018-12-13T15:34:47.828Z,102261.75
2018-12-13T15:37:16.523Z,102264.80
2018-12-13T15:39:44.147Z,102268.23
2018-12-13T15:42:11.735Z,102265.79
2018-12-13T15:44:39.352Z,102262.70
2018-12-13T15:47:06.947Z,102263.09
2018-12-13T15:49:34.672Z,102263.41
2018-12-13T15:52:02.287Z,102269.14
2018-12-13T15:54:29.875Z,102259.78
2018-12-13T15:56:57.476Z,102261.20
2018-12-13T15:59:25.063Z,102265.22
2018-12-13T16:01:52.671Z,102260.76
2018-12-13T16:04:20.260Z,102257.36
2018-12-13T16:06:47.872Z,102258.53
2018-12-13T16:09:15.464Z,102254.27
2018-12-13T16:11:43.079Z,102248.19
2018-12-13T16:14:10.677Z,102250.08
2018-12-13T16:16:38.292Z,102255.05
2018-12-13T16:19:05.886Z,102258.09
2018-12-13T16:21:33.494Z,102259.23
2018-12-13T16:24:01.160Z,102257.16
2018-12-13T16:26:28.779Z,102258.83
2018-12-13T16:28:56.511Z,102266.12
2018-12-13T16:31:24.133Z,102263.34
2018-12-13T16:33:51.741Z,102261.23
2018-12-13T16:36:19.355Z,102269.13
2018-12-13T16:38:46.947Z,102267.91
2018-12-13T16:41:14.563Z,102269.95
2018-12-13T16:43:42.154Z,102269.00
2018-12-13T16:46:09.768Z,102273.07
2018-12-13T16:48:37.379Z,102274.76
2018-12-13T16:51:04.974Z,102271.13
2018-12-13T16:53:32.580Z,102273.64
2018-12-13T16:56:00.162Z,102275.84
2018-12-13T16:58:27.767Z,102275.10
2018-12-13T17:00:55.352Z,102273.47
2018-12-13T17:03:34.774Z,102270.41
2018-12-13T17:06:02.369Z,102277.33
2018-12-13T17:08:29.983Z,102269.58
2018-12-13T17:10:57.585Z,102263.43
2018-12-13T17:13:25.199Z,102268.92
2018-12-13T17:15:52.798Z,102262.40
2018-12-13T17:18:20.407Z,102262.11
2018-12-13T17:20:47.999Z,102260.08
2018-12-13T17:23:15.615Z,102264.29
2018-12-13T17:25:43.207Z,102262.63
2018-12-13T17:28:10.825Z,102264.75
2018-12-13T17:30:38.495Z,102255.72
2018-12-13T17:33:06.104Z,102255.89
2018-12-13T17:35:33.695Z,102257.52
2018-12-13T17:38:01.307Z,102254.47
2018-12-13T17:40:28.898Z,102256.95
2018-12-13T17:42:56.507Z,102255.12
2018-12-13T17:45:24.102Z,102261.36
2018-12-13T17:47:51.715Z,102263.55
2018-12-13T17:50:19.303Z,102263.44
2018-12-13T17:52:46.975Z,102264.21
2018-12-13T17:55:14.567Z,102262.87
2018-12-13T17:57:42.155Z,102270.81
2018-12-13T18:00:12.836Z,102275.81
2018-12-13T18:02:40.423Z,102272.39
2018-12-13T18:05:08.114Z,102266.61
2018-12-13T18:07:35.698Z,102271.61
2018-12-13T18:10:06.166Z,102272.59
2018-12-13T18:12:33.755Z,102263.92
2018-12-13T18:15:01.370Z,102267.47
2018-12-13T18:17:28.955Z,102268.81
2018-12-13T18:19:56.568Z,102270.56
2018-12-13T18:22:24.156Z,102267.67
2018-12-13T18:24:51.777Z,102270.24
2018-12-13T18:27:19.370Z,102269.75
2018-12-13T18:29:46.987Z,102269.02
2018-12-13T18:32:14.574Z,102269.38
2018-12-13T18:34:42.188Z,102271.47
2018-12-13T18:37:09.775Z,102264.55
2018-12-13T18:39:37.380Z,102270.02
2018-12-13T18:42:04.982Z,102265.09
2018-12-13T18:44:32.581Z,102271.98
2018-12-13T18:47:00.195Z,102280.70
2018-12-13T18:49:27.778Z,102277.89
2018-12-13T18:51:55.394Z,102275.48
2018-12-13T18:54:22.983Z,102278.91
2018-12-13T18:56:50.599Z,102278.34
2018-12-13T18:59:18.188Z,102279.56
2018-12-13T19:01:45.817Z,102284.86
2018-12-13T19:04:13.410Z,102285.11
2018-12-13T19:06:41.028Z,102277.05
2018-12-13T19:09:08.615Z,102275.61
2018-12-13T19:11:36.216Z,102277.33
2018-12-13T19:14:03.894Z,102275.98
2018-12-13T19:16:31.515Z,102277.81
2018-12-13T19:18:59.100Z,102279.16
2018-12-13T19:21:26.714Z,102275.61
2018-12-13T19:23:54.302Z,102280.78
2018-12-13T19:26:21.907Z,102274.06
2018-12-13T19:28:49.494Z,102275.41
2018-12-13T19:31:17.107Z,102273.95
2018-12-13T19:33:44.696Z,102276.55
2018-12-13T19:36:12.315Z,102274.72
2018-12-13T19:38:39.907Z,102280.34
2018-12-13T19:41:07.531Z,102284.50
2018-12-13T19:43:35.161Z,102286.70
2018-12-13T19:46:02.849Z,102290.73
2018-12-13T19:48:30.474Z,102287.19
2018-12-13T19:50:58.405Z,102287.95
2018-12-13T19:53:26.298Z,102292.08
2018-12-13T19:55:53.890Z,102300.63
2018-12-13T19:58:21.533Z,102299.77
2018-12-13T20:00:49.131Z,102297.09
2018-12-13T20:03:16.793Z,102300.14
2018-12-13T20:05:44.390Z,102302.75
2018-12-13T20:08:11.998Z,102299.45
2018-12-13T20:10:39.635Z,102299.94
2018-12-13T20:13:07.262Z,102303.20
2018-12-13T20:15:34.883Z,102297.83
2018-12-13T20:18:02.489Z,102299.66
2018-12-13T20:20:30.098Z,102302.83
2018-12-13T20:22:57.756Z,102308.70
2018-12-13T20:25:25.360Z,102306.50
2018-12-13T20:27:53.036Z,102311.39
2018-12-13T20:30:20.637Z,102309.92
2018-12-13T20:32:48.258Z,102309.72
2018-12-13T20:35:16.190Z,102316.36
2018-12-13T20:37:43.788Z,102313.67
2018-12-13T20:40:11.410Z,102313.67
2018-12-13T20:42:39.034Z,102314.13
2018-12-13T20:45:07.331Z,102321.25
2018-12-13T20:47:35.031Z,102312.33
2018-12-13T20:50:02.661Z,102314.78
2018-12-13T20:52:30.265Z,102305.00
2018-12-13T20:54:57.951Z,102302.30
2018-12-13T20:57:25.537Z,102303.16
2018-12-13T20:59:53.153Z,102305.85
2018-12-13T21:02:20.743Z,102313.92
2018-12-13T21:04:48.360Z,102316.24
2018-12-13T21:07:21.517Z,102315.38
2018-12-13T21:09:49.303Z,102321.82
2018-12-13T21:12:17.012Z,102315.22
2018-12-13T21:14:44.851Z,102319.34
2018-12-13T21:17:12.456Z,102313.96
2018-12-13T21:19:40.095Z,102316.28
2018-12-13T21:22:07.711Z,102309.19
2018-12-13T21:24:35.324Z,102315.05
2018-12-13T21:27:02.922Z,102313.80
2018-12-13T21:29:30.554Z,102316.23
2018-12-13T21:31:58.206Z,102317.09
2018-12-13T21:34:25.945Z,102316.23
2018-12-13T21:36:53.539Z,102315.46
2018-12-13T21:39:21.160Z,102315.46
2018-12-13T21:41:48.844Z,102320.84
2018-12-13T21:44:16.454Z,102319.61
2018-12-13T21:46:44.034Z,102321.89
2018-12-13T21:49:11.642Z,102321.41
2018-12-13T21:51:39.228Z,102314.80
2018-12-13T21:54:06.835Z,102313.83
2018-12-13T21:56:34.416Z,102317.00
2018-12-13T21:59:03.928Z,102308.45
2018-12-13T22:01:31.660Z,102307.02
2018-12-13T22:03:59.251Z,102316.44
2018-12-13T22:06:26.854Z,102317.29
2018-12-13T22:08:54.435Z,102317.86
2018-12-13T22:11:22.046Z,102317.49
2018-12-13T22:13:49.631Z,102323.89
2018-12-13T22:16:17.251Z,102315.25
2018-12-13T22:18:44.841Z,102318.59
2018-12-13T22:21:12.446Z,102326.67
2018-12-13T22:23:40.172Z,102324.95
2018-12-13T22:26:07.787Z,102324.95
2018-12-13T22:28:35.382Z,102327.23
2018-12-13T22:31:02.985Z,102324.67
2018-12-13T22:33:30.569Z,102321.20
2018-12-13T22:35:58.189Z,102327.56
2018-12-13T22:38:25.779Z,102325.36
2018-12-13T22:40:53.388Z,102331.31
2018-12-13T22:43:20.967Z,102327.88
2018-12-13T22:45:48.581Z,102329.22
2018-12-13T22:48:16.167Z,102323.44
2018-12-13T22:50:43.784Z,102317.70
2018-12-13T22:53:11.364Z,102326.13
2018-12-13T22:55:38.969Z,102319.04
2018-12-13T22:58:06.554Z,102317.41
2018-12-13T23:00:34.244Z,102316.95
2018-12-13T23:03:02.620Z,102311.09
2018-12-13T23:05:30.227Z,102307.91
2018-12-13T23:07:57.816Z,102310.11
2018-12-13T23:10:25.431Z,102310.00
2018-12-13T23:12:53.013Z,102314.15
2018-12-13T23:15:20.621Z,102318.30
2018-12-13T23:17:48.207Z,102310.92
2018-12-13T23:20:15.824Z,102311.86
2018-12-13T23:22:43.415Z,102315.16
2018-12-13T23:25:11.030Z,102305.95
2018-12-13T23:27:38.620Z,102312.78
2018-12-13T23:30:08.772Z,102319.10
2018-12-13T23:32:36.352Z,102317.39
2018-12-13T23:35:04.612Z,102312.87
2018-12-13T23:37:32.203Z,102308.84
2018-12-13T23:39:59.801Z,102308.95
2018-12-13T23:42:27.407Z,102316.04
2018-12-13T23:44:54.990Z,102320.64
2018-12-13T23:47:22.596Z,102318.44
2018-12-13T23:49:50.174Z,102320.77
2018-12-13T23:52:17.792Z,102314.73
2018-12-13T23:54:45.379Z,102313.50
2018-12-13T23:57:12.995Z,102319.81
2018-12-13T23:59:40.585Z,102317.98
